Time;durP1;ratioP1;P1;durP2;ratioP2;P2;SDS_P1;SDS_P2;PMS_P1;PMS_P2;Temp;Humidity;BMP_temperature;BMP_pressure;BME280_temperature;BME280_humidity;BME280_pressure;Samples;Min_cycle;Max_cycle;Signal;HPM_P1;HPM_P2
2022/06/29 00:01:21;;;;;;;6.75;4.50;;;;;;;20.60;79.64;100109.22;5086804;28;20033;-29
2022/06/29 00:03:47;;;;;;;5.77;4.23;;;;;;;20.51;78.91;100108.16;5068584;28;20051;-30
2022/06/29 00:06:12;;;;;;;6.15;4.47;;;;;;;20.47;79.39;100108.75;5086704;28;20643;-29
2022/06/29 00:08:38;;;;;;;6.65;4.85;;;;;;;20.47;78.75;100113.31;5086971;28;20152;-28
2022/06/29 00:11:03;;;;;;;6.88;4.30;;;;;;;20.50;78.74;100101.13;5090155;28;20039;-33
2022/06/29 00:13:29;;;;;;;8.05;4.50;;;;;;;20.56;78.42;100116.25;5090891;28;20047;-30
2022/06/29 00:15:54;;;;;;;6.40;4.57;;;;;;;20.57;77.95;100123.28;5072668;28;20115;-31
2022/06/29 00:18:20;;;;;;;8.05;4.45;;;;;;;20.43;78.50;100123.09;5090565;28;20024;-29
2022/06/29 00:20:45;;;;;;;7.28;4.35;;;;;;;20.44;78.31;100124.75;5090731;28;20032;-29
2022/06/29 00:23:11;;;;;;;6.35;4.47;;;;;;;20.42;79.35;100111.47;5090499;28;20082;-29
2022/06/29 00:25:36;;;;;;;8.07;4.90;;;;;;;20.84;78.34;100145.31;5090155;28;20094;-32
2022/06/29 00:28:02;;;;;;;7.80;4.50;;;;;;;21.01;77.67;100136.72;5090375;28;20028;-29
2022/06/29 00:30:27;;;;;;;7.05;4.60;;;;;;;21.04;76.75;100144.31;5090402;28;20063;-38
2022/06/29 00:32:53;;;;;;;5.78;4.10;;;;;;;21.20;76.81;100142.22;5090566;28;20031;-31
2022/06/29 00:35:18;;;;;;;7.88;4.90;;;;;;;20.86;77.17;100137.69;5054983;28;20124;-34
2022/06/29 00:37:44;;;;;;;8.52;4.82;;;;;;;21.12;76.80;100150.97;5090645;28;20114;-29
2022/06/29 00:40:11;;;;;;;6.38;4.40;;;;;;;21.03;77.72;100160.84;5089966;28;20080;-32
2022/06/29 00:42:36;;;;;;;6.73;4.90;;;;;;;21.08;77.60;100155.34;5072015;28;20034;-32
2022/06/29 00:45:03;;;;;;;7.63;4.75;;;;;;;21.23;77.76;100151.69;5071592;28;20045;-32
2022/06/29 00:47:29;;;;;;;6.20;4.85;;;;;;;21.04;78.32;100170.59;5071734;28;20044;-29
2022/06/29 00:49:55;;;;;;;7.13;4.70;;;;;;;21.12;79.74;100169.97;5089962;28;20024;-31
2022/06/29 00:52:25;;;;;;;6.97;5.40;;;;;;;21.00;79.13;100164.13;5071387;28;20042;-29
2022/06/29 00:55:10;;;;;;;7.85;5.35;;;;;;;21.13;78.24;100158.03;5071733;28;20031;-29
2022/06/29 00:57:41;;;;;;;6.70;4.78;;;;;;;21.10;78.03;100160.50;5071572;28;20032;-30
2022/06/29 01:00:07;;;;;;;8.77;5.07;;;;;;;21.11;78.36;100159.41;5089789;28;20020;-31
2022/06/29 01:02:33;;;;;;;10.13;4.82;;;;;;;21.32;78.46;100160.00;5089407;28;20056;-31
2022/06/29 01:04:59;;;;;;;6.32;4.70;;;;;;;21.15;78.21;100161.25;5089544;28;20032;-34
2022/06/29 01:07:27;;;;;;;7.55;5.18;;;;;;;21.04;79.18;100159.75;5089601;28;20028;-28
2022/06/29 01:09:53;;;;;;;6.55;4.45;;;;;;;21.11;77.83;100135.81;5054890;28;20032;-30
2022/06/29 01:12:19;;;;;;;8.57;5.10;;;;;;;21.45;77.90;100126.78;5071518;28;20040;-33
2022/06/29 01:14:47;;;;;;;11.88;5.75;;;;;;;21.70;76.39;100132.97;5089889;28;20512;-33
2022/06/29 01:17:13;;;;;;;6.93;4.72;;;;;;;21.77;76.83;100158.66;5070799;28;20032;-29
2022/06/29 01:19:40;;;;;;;8.05;5.22;;;;;;;21.72;76.58;100161.47;5071091;28;20028;-31
2022/06/29 01:22:11;;;;;;;6.70;4.45;;;;;;;21.47;77.47;100138.13;5070189;28;20501;-32
2022/06/29 01:24:37;;;;;;;8.07;4.68;;;;;;;21.79;76.15;100144.81;5070776;28;20035;-31
2022/06/29 01:27:03;;;;;;;9.00;4.95;;;;;;;21.60;76.29;100144.78;5088732;28;20032;-40
2022/06/29 01:29:29;;;;;;;7.18;4.90;;;;;;;21.55;77.70;100115.00;5071057;28;20032;-31
2022/06/29 01:31:55;;;;;;;6.97;4.82;;;;;;;21.34;77.40;100136.13;5089193;28;20043;-31
2022/06/29 01:34:22;;;;;;;7.47;4.88;;;;;;;21.37;76.89;100139.06;5070735;28;20101;-31
2022/06/29 01:36:48;;;;;;;8.07;4.90;;;;;;;21.47;77.82;100130.00;5071140;28;20036;-30
2022/06/29 01:39:14;;;;;;;6.90;5.13;;;;;;;21.49;76.81;100127.00;5088756;28;20050;-30
2022/06/29 01:41:39;;;;;;;7.75;4.88;;;;;;;21.44;77.36;100125.16;5088989;28;20024;-34
2022/06/29 01:44:05;;;;;;;6.85;5.03;;;;;;;21.71;76.48;100143.53;5070517;28;20393;-29
2022/06/29 01:46:30;;;;;;;6.45;4.82;;;;;;;21.61;76.41;100120.06;5088423;28;20028;-35
2022/06/29 01:48:56;;;;;;;7.53;4.93;;;;;;;21.36;76.17;100106.78;5088759;28;20024;-31
2022/06/29 01:51:21;;;;;;;6.68;5.00;;;;;;;21.21;76.38;100116.72;5088738;28;20158;-31
2022/06/29 01:53:46;;;;;;;7.30;5.00;;;;;;;20.96;77.40;100084.44;5088826;28;20106;-29
2022/06/29 01:56:12;;;;;;;7.38;5.40;;;;;;;21.04;77.38;100105.50;5088616;28;20024;-30
2022/06/29 01:58:38;;;;;;;8.60;6.00;;;;;;;20.54;79.41;100091.34;5088521;28;20089;-29
2022/06/29 02:01:03;;;;;;;7.53;5.60;;;;;;;20.62;79.46;100099.69;5069860;28;20030;-32
2022/06/29 02:03:29;;;;;;;7.10;4.90;;;;;;;20.58;78.66;100086.97;5088455;28;20125;-29
2022/06/29 02:05:54;;;;;;;7.50;4.93;;;;;;;20.62;81.04;100093.47;5088607;28;20051;-30
2022/06/29 02:08:20;;;;;;;9.07;4.70;;;;;;;20.89;78.79;100094.84;5088711;28;20468;-29
2022/06/29 02:10:45;;;;;;;9.05;5.40;;;;;;;20.78;78.13;100103.06;5088410;28;20081;-30
2022/06/29 02:13:10;;;;;;;8.43;4.93;;;;;;;21.06;79.17;100103.31;5087973;28;20040;-29
2022/06/29 02:15:36;;;;;;;7.90;4.50;;;;;;;20.81;77.78;100093.56;5088313;28;20518;-33
2022/06/29 02:18:02;;;;;;;6.97;4.97;;;;;;;20.91;76.92;100106.22;5087999;28;20020;-31
2022/06/29 02:20:28;;;;;;;8.35;4.63;;;;;;;20.97;76.79;100099.63;5088332;28;20101;-29
2022/06/29 02:22:54;;;;;;;9.27;4.97;;;;;;;20.99;77.02;100103.66;5088402;28;20032;-29
2022/06/29 02:25:20;;;;;;;6.05;4.60;;;;;;;21.11;77.13;100100.56;5088029;28;20078;-29
2022/06/29 02:27:46;;;;;;;7.15;4.65;;;;;;;20.91;77.20;100100.78;5088228;28;20530;-30
2022/06/29 02:30:13;;;;;;;8.32;4.65;;;;;;;21.01;77.58;100098.78;5088109;28;20161;-36
2022/06/29 02:35:40;;;;;;;6.18;4.47;;;;;;;20.66;79.19;100094.53;5042681;28;20036;-34
2022/06/29 02:38:05;;;;;;;8.55;5.18;;;;;;;20.42;78.71;100086.31;5088159;28;20028;-31
2022/06/29 02:40:31;;;;;;;7.47;4.93;;;;;;;20.62;79.15;100098.91;5088108;28;20121;-29
2022/06/29 02:42:56;;;;;;;8.65;5.10;;;;;;;20.81;78.17;100098.97;5088133;28;20102;-29
2022/06/29 02:45:22;;;;;;;7.82;4.70;;;;;;;20.68;79.87;100095.03;5087746;28;20032;-29
2022/06/29 02:47:47;;;;;;;7.65;5.13;;;;;;;20.33;78.76;100086.09;5088049;28;20079;-31
2022/06/29 02:50:13;;;;;;;11.35;10.07;;;;;;;20.36;80.91;100101.78;5069415;28;20036;-29
2022/06/29 02:52:38;;;;;;;15.07;13.52;;;;;;;21.11;77.56;100091.63;5087745;28;20034;-31
2022/06/29 02:55:04;;;;;;;36.95;33.55;;;;;;;20.62;78.31;100099.69;5069219;28;20475;-32
2022/06/29 02:57:29;;;;;;;38.03;34.70;;;;;;;20.58;78.27;100095.09;5069402;28;20632;-29
2022/06/29 02:59:55;;;;;;;43.10;39.30;;;;;;;20.63;76.95;100095.88;5087890;28;20062;-29
2022/06/29 03:02:20;;;;;;;23.70;21.10;;;;;;;20.35;78.01;100085.81;5087591;28;20047;-32
2022/06/29 03:04:46;;;;;;;17.48;15.00;;;;;;;19.98;79.98;100090.69;5087861;28;20059;-30
2022/06/29 03:07:11;;;;;;;11.70;9.95;;;;;;;19.82;80.10;100081.06;5069056;28;20043;-30
2022/06/29 03:09:36;;;;;;;12.00;9.57;;;;;;;19.71;82.42;100093.00;5087928;28;20047;-29
2022/06/29 03:12:02;;;;;;;12.32;9.55;;;;;;;19.64;82.93;100091.38;5087327;28;20506;-30
2022/06/29 03:14:28;;;;;;;11.35;8.93;;;;;;;19.76;81.07;100082.19;5087750;28;20024;-35
2022/06/29 03:16:53;;;;;;;9.90;8.25;;;;;;;19.67;82.63;100079.19;5087430;28;20020;-31
2022/06/29 03:19:19;;;;;;;11.30;8.07;;;;;;;19.58;82.54;100087.09;5087349;28;20032;-28
2022/06/29 03:21:45;;;;;;;12.45;7.68;;;;;;;19.52;82.53;100071.97;5087599;28;20032;-34
2022/06/29 03:24:10;;;;;;;8.98;6.53;;;;;;;19.81;82.57;100085.63;5087524;28;20032;-28
2022/06/29 03:26:35;;;;;;;9.65;6.13;;;;;;;19.92;81.53;100075.56;5087270;28;20020;-29
2022/06/29 03:29:01;;;;;;;9.05;5.60;;;;;;;20.02;82.61;100075.50;5069045;28;20031;-29
2022/06/29 03:31:26;;;;;;;11.82;6.18;;;;;;;20.33;81.28;100074.44;5087257;28;20027;-31
2022/06/29 03:33:52;;;;;;;8.63;5.72;;;;;;;20.46;80.88;100085.44;5087306;28;20028;-30
2022/06/29 03:36:17;;;;;;;7.93;5.68;;;;;;;20.74;80.56;100074.94;5087295;28;20043;-33
2022/06/29 03:38:43;;;;;;;9.30;5.82;;;;;;;20.91;78.16;100079.09;5087140;28;20028;-29
2022/06/29 03:41:08;;;;;;;8.20;6.18;;;;;;;20.86;78.88;100080.78;5068783;28;20028;-31
2022/06/29 03:43:34;;;;;;;7.68;5.60;;;;;;;20.87;76.78;100076.94;5087526;28;20447;-31
2022/06/29 03:45:59;;;;;;;9.90;5.70;;;;;;;20.82;77.18;100077.03;5091044;28;20047;-29
2022/06/29 03:48:25;;;;;;;7.68;5.57;;;;;;;20.99;78.35;100081.19;5073298;28;20027;-29
2022/06/29 03:50:50;;;;;;;8.30;5.35;;;;;;;20.91;78.05;100076.38;5072912;28;20020;-30
2022/06/29 03:53:16;;;;;;;9.25;5.97;;;;;;;20.85;76.91;100081.06;5072687;28;20030;-30
2022/06/29 03:55:42;;;;;;;7.20;5.47;;;;;;;20.82;77.44;100082.44;5072627;28;20032;-29
2022/06/29 03:58:07;;;;;;;8.15;5.68;;;;;;;20.76;77.11;100067.31;5072797;28;20032;-29
2022/06/29 04:00:33;;;;;;;11.00;5.57;;;;;;;20.94;76.43;100082.03;5091389;28;20111;-30
2022/06/29 04:02:58;;;;;;;8.10;6.07;;;;;;;20.56;77.90;100072.91;5072602;28;20078;-30
2022/06/29 04:05:24;;;;;;;8.70;6.28;;;;;;;20.58;77.68;100076.97;5072574;28;20123;-29
2022/06/29 04:07:49;;;;;;;9.82;5.97;;;;;;;20.57;78.22;100072.59;5072808;28;20032;-30
2022/06/29 04:10:15;;;;;;;8.30;5.97;;;;;;;20.80;77.63;100076.50;5072751;28;20028;-31
2022/06/29 04:12:40;;;;;;;13.30;6.20;;;;;;;20.90;77.66;100063.91;5072207;28;20035;-29
2022/06/29 04:15:06;;;;;;;15.40;6.63;;;;;;;20.94;77.62;100057.63;5090918;28;20026;-30
2022/06/29 04:17:32;;;;;;;9.30;6.40;;;;;;;21.04;77.32;100067.56;5072619;28;20032;-29
2022/06/29 04:19:57;;;;;;;9.93;6.30;;;;;;;21.20;77.35;100069.00;5091060;28;20411;-30
2022/06/29 04:22:23;;;;;;;9.20;5.72;;;;;;;21.30;76.16;100069.97;5090757;28;20027;-28
2022/06/29 04:24:50;;;;;;;8.00;6.40;;;;;;;21.36;74.59;100074.25;5090673;28;20553;-29
2022/06/29 04:27:16;;;;;;;9.68;5.70;;;;;;;21.18;75.83;100068.47;5090492;28;20097;-29
2022/06/29 04:29:41;;;;;;;8.90;6.80;;;;;;;21.30;75.80;100080.81;5072223;28;20676;-29
2022/06/29 04:32:08;;;;;;;9.20;6.30;;;;;;;21.46;74.47;100085.00;5090555;28;20089;-29
2022/06/29 04:34:34;;;;;;;10.00;6.97;;;;;;;21.63;74.11;100085.28;5055307;28;20111;-29
2022/06/29 04:36:59;;;;;;;8.88;6.40;;;;;;;21.72;72.91;100087.34;5090824;28;20254;-33
2022/06/29 04:39:25;;;;;;;9.27;6.15;;;;;;;21.82;73.71;100087.22;5090266;28;20036;-35
2022/06/29 04:41:52;;;;;;;7.30;6.22;;;;;;;21.96;72.14;100103.56;5071877;28;20081;-31
2022/06/29 04:44:18;;;;;;;7.75;6.63;;;;;;;21.97;73.52;100103.28;5090051;28;20815;-30
2022/06/29 04:46:44;;;;;;;8.45;6.20;;;;;;;21.85;72.89;100082.00;5090386;28;20092;-29
2022/06/29 04:49:09;;;;;;;9.40;6.45;;;;;;;21.85;72.31;100097.50;5090267;28;20207;-30
2022/06/29 04:51:35;;;;;;;7.57;6.20;;;;;;;21.96;72.39;100098.16;5090243;28;20031;-30
2022/06/29 04:54:02;;;;;;;9.82;7.18;;;;;;;22.09;71.30;100100.13;5071904;28;20028;-29
2022/06/29 04:56:30;;;;;;;9.93;6.22;;;;;;;21.91;71.25;100093.59;5071898;28;20032;-35
2022/06/29 04:58:57;;;;;;;7.40;6.22;;;;;;;21.97;72.09;100091.63;5070955;28;20055;-30
2022/06/29 05:01:25;;;;;;;11.07;6.15;;;;;;;21.96;71.42;100082.66;5071587;28;20035;-30
2022/06/29 05:03:51;;;;;;;9.45;6.40;;;;;;;22.19;71.57;100107.28;5071954;28;20129;-37
2022/06/29 05:06:17;;;;;;;7.82;6.00;;;;;;;22.13;70.34;100086.75;5071718;28;20056;-30
2022/06/29 05:08:43;;;;;;;9.05;6.25;;;;;;;22.42;71.13;100106.44;5071652;28;20039;-30
2022/06/29 05:11:09;;;;;;;8.15;6.63;;;;;;;22.67;70.01;100105.19;5089757;28;20036;-30
2022/06/29 05:13:34;;;;;;;8.20;6.35;;;;;;;22.76;69.36;100110.75;5089688;28;20032;-29
2022/06/29 05:15:59;;;;;;;7.57;5.82;;;;;;;22.74;68.57;100096.66;5089868;28;20130;-29
2022/06/29 05:18:26;;;;;;;7.22;5.80;;;;;;;22.94;66.86;100116.41;5089615;28;20479;-28
2022/06/29 05:20:52;;;;;;;10.38;6.03;;;;;;;22.77;68.38;100101.47;5089741;28;20035;-33
2022/06/29 05:23:18;;;;;;;6.85;5.15;;;;;;;22.89;66.24;100120.03;5070706;28;20032;-32
2022/06/29 05:25:44;;;;;;;7.55;6.22;;;;;;;23.04;66.21;100106.16;5071498;28;20032;-29
2022/06/29 05:28:11;;;;;;;9.55;5.55;;;;;;;22.98;66.96;100080.13;5089649;28;20769;-29
2022/06/29 05:30:37;;;;;;;10.37;5.70;;;;;;;23.30;66.96;100097.50;5071230;28;20028;-30
2022/06/29 05:33:03;;;;;;;7.90;5.80;;;;;;;23.41;64.83;100098.09;5070769;28;20047;-37
2022/06/29 05:35:33;;;;;;;7.80;5.03;;;;;;;23.35;63.88;100100.13;5070951;28;20483;-30
2022/06/29 05:37:58;;;;;;;7.03;5.38;;;;;;;23.23;63.84;100088.94;5089355;28;20157;-28
2022/06/29 05:40:24;;;;;;;7.68;5.07;;;;;;;23.39;65.32;100094.88;5089301;28;20786;-29
2022/06/29 05:42:50;;;;;;;8.27;5.50;;;;;;;23.59;64.64;100088.22;5089454;28;20051;-30
2022/06/29 05:45:15;;;;;;;9.73;5.60;;;;;;;23.69;63.12;100103.53;5088946;28;20475;-34
2022/06/29 05:47:41;;;;;;;9.13;6.20;;;;;;;23.52;64.18;100098.69;5089256;28;20043;-28
2022/06/29 05:50:10;;;;;;;9.57;6.80;;;;;;;23.61;62.76;100108.56;5089014;28;20035;-33
2022/06/29 05:52:36;;;;;;;30.48;18.42;;;;;;;23.67;63.32;100101.91;5088907;28;20028;-32
2022/06/29 05:55:03;;;;;;;53.13;31.92;;;;;;;23.94;63.12;100113.84;5054055;28;20040;-32
2022/06/29 05:57:29;;;;;;;21.65;13.82;;;;;;;23.94;62.99;100104.88;5070622;28;20658;-31
2022/06/29 05:59:54;;;;;;;8.00;5.80;;;;;;;24.16;62.48;100112.28;5088928;28;20068;-31
2022/06/29 06:02:20;;;;;;;7.32;5.47;;;;;;;24.13;60.83;100091.91;5068974;28;20564;-33
2022/06/29 06:04:45;;;;;;;12.57;6.90;;;;;;;24.15;60.76;100095.16;5088250;28;20450;-35
2022/06/29 06:07:11;;;;;;;9.73;5.95;;;;;;;24.28;62.63;100109.81;5085291;28;20024;-29
2022/06/29 06:09:36;;;;;;;11.45;6.53;;;;;;;24.18;61.80;100110.84;5088671;28;20066;-33
2022/06/29 06:12:02;;;;;;;21.52;12.68;;;;;;;24.40;60.98;100107.34;5084321;28;20063;-33
2022/06/29 06:14:28;;;;;;;6.80;5.50;;;;;;;24.60;62.07;100097.88;5068079;28;20017;-32
2022/06/29 06:16:53;;;;;;;8.48;5.13;;;;;;;24.26;60.43;100080.16;5050020;28;20125;-31
2022/06/29 06:19:19;;;;;;;7.68;5.50;;;;;;;24.58;60.38;100107.47;5049827;28;20055;-32
2022/06/29 06:21:44;;;;;;;7.68;5.18;;;;;;;24.56;60.35;100113.25;5067902;28;20787;-31
2022/06/29 06:24:10;;;;;;;6.60;5.03;;;;;;;24.51;59.30;100109.84;5067768;28;20028;-30
2022/06/29 06:26:35;;;;;;;7.63;4.93;;;;;;;24.76;57.91;100119.28;5067931;28;20374;-29
2022/06/29 06:29:01;;;;;;;7.15;4.80;;;;;;;24.79;58.36;100118.66;5068076;28;20125;-31
2022/06/29 06:31:27;;;;;;;6.93;5.05;;;;;;;24.93;60.56;100122.09;5068199;28;20033;-33
2022/06/29 06:33:53;;;;;;;9.73;5.35;;;;;;;25.03;57.56;100112.84;5052636;28;20036;-35
2022/06/29 06:36:18;;;;;;;7.70;5.28;;;;;;;25.02;58.78;100116.69;5058588;28;20071;-32
2022/06/29 06:38:44;;;;;;;8.32;5.60;;;;;;;25.22;59.81;100118.88;5065620;28;20055;-31
2022/06/29 06:41:21;;;;;;;8.15;5.00;;;;;;;25.36;57.74;100112.50;5088330;28;20842;-29
2022/06/29 06:43:53;;;;;;;6.95;4.85;;;;;;;25.55;55.39;100109.50;5087806;28;20032;-29
2022/06/29 06:46:19;;;;;;;8.18;5.13;;;;;;;25.74;57.54;100087.34;5069307;28;20042;-31
2022/06/29 06:48:46;;;;;;;7.38;5.15;;;;;;;25.93;56.00;100100.72;5069118;28;20115;-30
2022/06/29 06:51:12;;;;;;;7.05;4.85;;;;;;;25.85;58.56;100085.91;5086270;28;20114;-29
2022/06/29 06:53:38;;;;;;;7.32;4.80;;;;;;;26.11;56.07;100085.13;5068822;28;20024;-31
2022/06/29 06:56:04;;;;;;;9.30;5.20;;;;;;;26.36;55.43;100097.19;5078794;28;20059;-36
2022/06/29 06:58:29;;;;;;;7.40;4.95;;;;;;;26.50;54.52;100096.97;5048949;28;20093;-31
2022/06/29 07:00:55;;;;;;;7.78;5.20;;;;;;;26.65;56.44;100101.97;5067411;28;20037;-29
2022/06/29 07:03:20;;;;;;;8.20;4.88;;;;;;;26.76;57.04;100095.00;5066480;28;20519;-31
2022/06/29 07:05:46;;;;;;;8.77;5.20;;;;;;;26.94;55.50;100092.22;5067211;28;20474;-29
2022/06/29 07:08:11;;;;;;;6.53;5.25;;;;;;;26.71;54.46;100080.72;5067302;28;20111;-31
2022/06/29 07:10:37;;;;;;;7.00;5.07;;;;;;;26.71;57.71;100086.97;5049084;28;20496;-30
2022/06/29 07:13:02;;;;;;;5.80;4.88;;;;;;;26.84;54.82;100074.22;5067131;28;20547;-29
2022/06/29 07:15:28;;;;;;;5.97;4.80;;;;;;;27.02;55.71;100088.63;5065980;28;20039;-30
2022/06/29 07:17:54;;;;;;;9.25;5.05;;;;;;;27.04;54.12;100089.91;5067034;28;20051;-31
2022/06/29 07:20:19;;;;;;;7.35;4.65;;;;;;;27.21;52.58;100089.00;5066062;28;20077;-30
2022/06/29 07:22:45;;;;;;;5.95;4.82;;;;;;;27.13;56.65;100081.63;5066913;28;20025;-30
2022/06/29 07:25:10;;;;;;;6.18;5.03;;;;;;;27.38;52.52;100079.94;5066857;28;20035;-30
2022/06/29 07:27:35;;;;;;;5.70;4.72;;;;;;;27.50;52.67;100075.66;5066513;28;20075;-30
2022/06/29 07:30:01;;;;;;;8.07;4.55;;;;;;;27.79;52.38;100085.78;5066798;28;20028;-29
2022/06/29 07:32:26;;;;;;;8.68;4.65;;;;;;;27.80;51.48;100081.91;5066687;28;20024;-29
2022/06/29 07:34:52;;;;;;;6.30;4.68;;;;;;;27.77;52.73;100080.63;5066747;28;20044;-33
2022/06/29 07:37:17;;;;;;;6.13;4.50;;;;;;;27.98;51.72;100094.34;5065179;28;20025;-35
2022/06/29 07:39:43;;;;;;;6.07;4.55;;;;;;;28.11;49.68;100094.41;5066610;28;20025;-30
2022/06/29 07:42:08;;;;;;;5.68;4.50;;;;;;;28.19;49.93;100083.34;5066767;28;20037;-31
2022/06/29 07:44:34;;;;;;;7.47;3.90;;;;;;;28.39;47.85;100092.69;5066529;28;20052;-32
2022/06/29 07:46:59;;;;;;;7.13;4.32;;;;;;;28.29;48.34;100081.34;5066545;28;20032;-33
2022/06/29 07:49:25;;;;;;;5.47;4.03;;;;;;;28.41;46.91;100084.91;5066406;28;20095;-29
2022/06/29 07:51:53;;;;;;;6.47;3.83;;;;;;;28.52;47.71;100095.50;5048514;28;20041;-29
2022/06/29 07:54:18;;;;;;;9.35;4.47;;;;;;;28.74;46.91;100097.03;5048636;28;20021;-34
2022/06/29 07:56:44;;;;;;;6.05;4.35;;;;;;;28.53;48.35;100081.44;5065205;28;20492;-29
2022/06/29 07:59:09;;;;;;;5.40;3.72;;;;;;;28.94;45.95;100095.34;5066266;28;20035;-33
2022/06/29 08:01:35;;;;;;;6.43;3.83;;;;;;;29.02;42.33;100097.19;5047664;28;20036;-29
2022/06/29 08:04:00;;;;;;;5.32;3.70;;;;;;;29.00;40.17;100088.47;5048466;28;20072;-31
2022/06/29 08:06:26;;;;;;;5.60;3.08;;;;;;;29.11;42.56;100081.41;5066600;28;20028;-31
2022/06/29 08:08:51;;;;;;;7.18;3.25;;;;;;;29.61;41.60;100096.69;5066707;28;20056;-33
2022/06/29 08:11:17;;;;;;;6.40;3.03;;;;;;;29.65;40.49;100083.88;5066349;28;20029;-33
2022/06/29 08:13:43;;;;;;;5.50;3.17;;;;;;;29.87;39.58;100081.75;5066611;28;20044;-30
2022/06/29 08:16:09;;;;;;;6.03;3.33;;;;;;;30.10;38.98;100082.03;5066448;28;20256;-29
2022/06/29 08:18:36;;;;;;;6.15;3.35;;;;;;;30.26;37.71;100098.59;5048161;28;20035;-31
2022/06/29 08:21:03;;;;;;;5.43;3.40;;;;;;;30.52;39.17;100083.56;5048468;28;20028;-32
2022/06/29 08:23:29;;;;;;;5.43;3.35;;;;;;;30.66;37.63;100089.44;5047826;28;20271;-30
2022/06/29 08:25:56;;;;;;;5.78;3.40;;;;;;;30.69;38.62;100083.22;5066244;28;20043;-32
2022/06/29 08:28:22;;;;;;;4.57;2.80;;;;;;;30.63;36.37;100090.94;5048124;28;20029;-29
2022/06/29 08:30:48;;;;;;;3.22;2.50;;;;;;;30.43;36.05;100095.53;5049432;28;20105;-30
2022/06/29 08:33:13;;;;;;;4.57;2.65;;;;;;;30.48;36.00;100083.47;5070200;28;20028;-29
2022/06/29 08:35:39;;;;;;;4.63;2.95;;;;;;;30.93;39.33;100089.72;5070218;28;20102;-33
2022/06/29 08:38:05;;;;;;;8.25;3.47;;;;;;;31.14;36.48;100082.00;5070199;28;20545;-30
2022/06/29 08:40:41;;;;;;;6.50;2.85;;;;;;;30.75;36.79;100087.31;5051807;28;20036;-38
2022/06/29 08:43:09;;;;;;;5.40;3.13;;;;;;;30.61;37.17;100076.72;5069955;28;20103;-34
2022/06/29 08:45:35;;;;;;;5.90;3.03;;;;;;;30.82;37.30;100093.00;5051278;28;20033;-33
2022/06/29 08:48:01;;;;;;;6.07;3.00;;;;;;;31.04;36.48;100077.03;5069769;28;20416;-31
2022/06/29 08:50:27;;;;;;;7.13;3.03;;;;;;;31.18;36.67;100101.34;5068279;28;20123;-30
2022/06/29 08:52:58;;;;;;;5.47;3.00;;;;;;;31.21;37.09;100081.34;5051547;28;20030;-31
2022/06/29 08:55:25;;;;;;;5.72;3.20;;;;;;;31.43;34.87;100099.19;5051184;28;20033;-29
2022/06/29 08:57:52;;;;;;;;;;;;;;;31.48;38.48;100096.16;5051595;28;20097;-32
2022/06/29 09:00:17;;;;;;;5.47;3.45;;;;;;;31.28;36.13;100095.28;5034785;28;19966;-29
2022/06/29 09:02:44;;;;;;;7.53;3.20;;;;;;;31.23;34.39;100101.88;5069028;28;20044;-33
2022/06/29 09:05:10;;;;;;;5.85;3.20;;;;;;;31.45;33.88;100099.66;5051233;28;20055;-30
2022/06/29 09:07:35;;;;;;;5.68;3.42;;;;;;;31.67;35.62;100094.59;5069093;28;20068;-32
2022/06/29 09:10:06;;;;;;;5.22;3.13;;;;;;;32.27;34.01;100094.28;5069508;28;20032;-29
2022/06/29 09:12:32;;;;;;;5.82;3.20;;;;;;;32.37;33.58;100085.38;5068999;28;20029;-35
2022/06/29 09:14:58;;;;;;;5.30;3.33;;;;;;;32.64;34.28;100094.56;5069358;28;20039;-29
2022/06/29 09:17:24;;;;;;;6.22;3.20;;;;;;;32.64;34.21;100100.09;5051117;28;20450;-29
2022/06/29 09:19:53;;;;;;;7.57;3.30;;;;;;;32.89;34.04;100096.94;5069246;28;20101;-31
2022/06/29 09:22:19;;;;;;;5.78;3.15;;;;;;;33.13;32.27;100104.88;5069030;28;20224;-31
2022/06/29 09:24:45;;;;;;;6.82;3.30;;;;;;;33.05;30.95;100100.38;5069196;28;20119;-32
2022/06/29 09:27:11;;;;;;;5.80;2.55;;;;;;;32.11;30.73;100089.63;5068792;28;20032;-30
2022/06/29 09:29:39;;;;;;;7.93;3.38;;;;;;;32.29;29.69;100100.22;5050726;28;20028;-31
2022/06/29 09:32:05;;;;;;;4.20;2.75;;;;;;;32.06;32.37;100103.72;5050916;28;20033;-33
2022/06/29 09:34:36;;;;;;;4.53;2.88;;;;;;;32.08;30.37;100106.91;5068697;28;20047;-35
2022/06/29 09:37:04;;;;;;;7.43;2.88;;;;;;;32.28;30.69;100082.84;5068789;28;20044;-32
2022/06/29 09:39:32;;;;;;;7.13;3.13;;;;;;;32.54;33.82;100090.44;5050026;28;20047;-30
2022/06/29 09:41:58;;;;;;;7.68;3.10;;;;;;;32.31;31.73;100086.84;5049715;28;20025;-30
2022/06/29 09:44:24;;;;;;;5.63;3.08;;;;;;;32.43;32.36;100084.72;5068765;28;20155;-31
2022/06/29 09:46:54;;;;;;;5.63;2.85;;;;;;;32.63;30.42;100081.91;5068673;28;20063;-32
2022/06/29 09:49:25;;;;;;;4.82;2.90;;;;;;;33.25;30.93;100089.25;5068298;28;20032;-33
2022/06/29 09:51:55;;;;;;;7.30;3.00;;;;;;;33.32;30.74;100072.78;5068464;28;20037;-29
2022/06/29 09:54:28;;;;;;;4.57;2.83;;;;;;;33.27;31.54;100068.38;5050145;28;20515;-29
2022/06/29 09:56:56;;;;;;;5.25;3.28;;;;;;;33.10;30.39;100066.94;5050498;28;20424;-34
2022/06/29 10:02:34;;;;;;;5.95;2.90;;;;;;;32.95;29.67;100070.63;5068170;28;20056;-30
2022/06/29 10:02:34;;;;;;;5.93;3.03;;;;;;;33.12;30.77;100074.84;5050030;28;20131;-30
2022/06/29 10:05:13;;;;;;;5.38;3.03;;;;;;;33.29;29.05;100081.81;5068289;28;20050;-33
2022/06/29 10:07:44;;;;;;;7.13;2.80;;;;;;;33.52;30.08;100082.53;5068322;28;20033;-29
2022/06/29 10:10:12;;;;;;;6.13;2.88;;;;;;;33.95;31.04;100080.34;5050121;28;20029;-31
2022/06/29 10:16:03;;;;;;;7.45;3.00;;;;;;;33.66;29.89;100092.22;5068283;28;20097;-29
2022/06/29 10:18:49;;;;;;;5.68;2.47;;;;;;;33.70;27.50;100082.00;5049765;28;20039;-32
2022/06/29 10:21:22;;;;;;;6.55;3.03;;;;;;;33.54;28.29;100074.66;5049382;28;20031;-31
2022/06/29 10:23:49;;;;;;;5.15;2.65;;;;;;;33.45;28.59;100076.91;5067900;28;20044;-30
2022/06/29 10:26:35;;;;;;;4.63;2.72;;;;;;;33.36;28.57;100073.63;5067395;28;20420;-31
2022/06/29 10:29:06;;;;;;;4.55;2.70;;;;;;;32.70;29.96;100071.00;5049420;28;20067;-33
2022/06/29 10:32:08;;;;;;;6.85;3.00;;;;;;;32.68;30.84;100067.81;5067148;28;20028;-30
2022/06/29 10:34:34;;;;;;;7.15;2.35;;;;;;;32.31;30.09;100062.81;5049513;28;20028;-31
2022/06/29 10:37:02;;;;;;;3.35;2.20;;;;;;;32.77;27.50;100059.28;5067496;28;20024;-33
2022/06/29 10:39:48;;;;;;;3.72;2.53;;;;;;;32.44;30.98;100047.66;5067296;28;20506;-33
2022/06/29 10:45:17;;;;;;;8.68;2.80;;;;;;;33.64;29.33;100061.38;5067199;28;20294;-30
2022/06/29 10:47:48;;;;;;;5.70;2.88;;;;;;;34.12;29.15;100058.78;5067483;28;20063;-32
2022/06/29 10:52:44;;;;;;;5.40;2.70;;;;;;;34.50;27.91;100063.13;5067383;28;20097;-32
2022/06/29 10:55:09;;;;;;;4.55;2.53;;;;;;;34.67;27.82;100047.88;5048793;28;20021;-30
2022/06/29 10:57:37;;;;;;;4.07;2.20;;;;;;;34.47;26.93;100040.94;5066699;28;20035;-30
2022/06/29 11:00:07;;;;;;;5.93;2.40;;;;;;;34.52;26.87;100057.22;5048708;28;20067;-30
2022/06/29 11:02:32;;;;;;;5.50;2.40;;;;;;;34.13;27.92;100050.13;5066808;28;20132;-29
2022/06/29 11:04:58;;;;;;;4.47;2.60;;;;;;;34.42;26.37;100059.50;5066471;28;20025;-33
2022/06/29 11:12:53;;;;;;;6.10;2.47;;;;;;;33.13;28.47;100052.38;5067095;28;20035;-30
2022/06/29 11:18:15;;;;;;;5.60;2.40;;;;;;;33.13;29.45;100055.13;5066750;28;20063;-29
2022/06/29 11:20:45;;;;;;;5.90;2.70;;;;;;;33.49;27.31;100033.53;5048818;28;20067;-29
2022/06/29 11:23:15;;;;;;;5.45;2.30;;;;;;;34.66;25.49;100042.75;5066982;28;20536;-35
2022/06/29 11:25:44;;;;;;;4.20;2.47;;;;;;;35.34;28.04;100048.75;5066471;28;20484;-31
2022/06/29 11:28:10;;;;;;;5.53;2.25;;;;;;;35.74;25.59;100049.78;5048543;28;20032;-31
2022/06/29 11:30:37;;;;;;;4.47;2.22;;;;;;;35.99;25.38;100033.97;5066879;28;20766;-30
2022/06/29 11:33:10;;;;;;;3.78;2.33;;;;;;;35.47;26.34;100044.47;5065459;28;20924;-29
2022/06/29 11:35:38;;;;;;;4.63;2.53;;;;;;;35.42;26.20;100030.97;5066336;28;20545;-29
2022/06/29 11:38:05;;;;;;;5.05;2.67;;;;;;;34.60;27.76;100028.41;5048570;28;20024;-30
2022/06/29 11:40:39;;;;;;;4.68;2.28;;;;;;;33.81;27.08;100033.16;5066336;28;20036;-34
2022/06/29 11:43:08;;;;;;;8.32;2.83;;;;;;;33.63;28.76;100027.41;5048658;28;20032;-34